LRSV - SUCEAVA/STEFAN CEL MARE - SUCEAVA

Compiled: 21:29:23 on 19/01/2018

Latest METAR/SPECI Reports

METAR LRSV 192100Z 00000KT 9999 FEW046 02/M04 Q1009=

Previous reports

METAR LRSV 192030Z 25004KT CAVOK M00/M03 Q1008=
METAR LRSV 192000Z 22003KT CAVOK 01/M04 Q1008=
METAR LRSV 191930Z 23005KT CAVOK 00/M04 Q1008=
METAR LRSV 191900Z 27005KT CAVOK 01/M04 Q1008=

Latest TAF report

TAF LRSV 192000Z 1921/2006 VRB04KT CAVOK PROB30 TEMPO 1922/1924 -FZRA BECMG 2000/2002 5000 -SN BR BKN010 OVC030 TEMPO 2002/2006 3000 -SN BR BKN005 OVC025=

Valid WARNINGS

LRSV AD WRNG 1 VALID 192100/200900 FROST FCST NC=